Virtuous Striker — C6XX6 — position and weather

sailwx.info

Track history (hours):
 
Tides and Currents Weather Stations Pressure Air Temp Water Temp Dewpoint Dewpoint Depression Visibility Wind Speed Wind Dir Waves Ship Positions

Virtuous Striker

Last reported at 2016-Nov-22 17:23 UTC. Time now 2016-Dec-06 15:58 UTC.
Position N 36°20' W 002°27'.
Warning: this ship's position is 13 days out of date.

Length 190 m; draft 9.8 m.

Type: Cargo ship. MMSI: 311025100.

Date/timePositionNaut miles runAvg speedWind from/ knotsBaromVisibWave heightAir tempDewpointWater temp
2016-Nov-22 17:23N 36°20' W 002°27'1113.9
2016-Nov-22 16:33N 36°18' W 002°41'  
2016-Nov-20 09:04N 29°29' W 013°34'1112.6
2016-Nov-20 08:09N 29°21' W 013°43'812.2
2016-Nov-20 07:31N 29°16' W 013°49'1712.4
2016-Nov-20 06:08N 29°03' W 014°03'1012.8
2016-Nov-20 05:21N 28°56' W 014°11'1113.0
2016-Nov-20 04:30N 28°48' W 014°19'1313.3
2016-Nov-20 03:33N 28°39' W 014°30'2713.4
2016-Nov-20 01:33N 28°24' W 014°54'2613.0
2016-Nov-19 23:33N 28°09' W 015°19'6 5.4
2016-Nov-19 22:32N 28°06' W 015°24'0 0.0
2016-Nov-19 20:32N 28°06' W 015°24'0 0.0
2016-Nov-19 19:32N 28°06' W 015°24'0 0.0
2016-Nov-19 17:33N 28°06' W 015°24'2 1.6
2016-Nov-19 16:33N 28°06' W 015°22'  
Track history (hours):
 
Tides and Currents Weather Stations Pressure Air Temp Water Temp Dewpoint Dewpoint Depression Visibility Wind Speed Wind Dir Waves Ship Positions

Virtuous Striker

Last reported at 2016-Nov-22 17:23 UTC. Time now 2016-Dec-06 15:58 UTC.
Position N 36°20' W 002°27'.
Warning: this ship's position is 13 days out of date.

Length 190 m; draft 9.8 m.

Type: Cargo ship. MMSI: 311025100.

Date/timePositionNaut miles runAvg speedWind from/ knotsBaromVisibWave heightAir tempDewpointWater temp
2016-Nov-22 17:23N 36°20' W 002°27'1113.9
2016-Nov-22 16:33N 36°18' W 002°41'  
2016-Nov-20 09:04N 29°29' W 013°34'1112.6
2016-Nov-20 08:09N 29°21' W 013°43'812.2
2016-Nov-20 07:31N 29°16' W 013°49'1712.4
2016-Nov-20 06:08N 29°03' W 014°03'1012.8
2016-Nov-20 05:21N 28°56' W 014°11'1113.0
2016-Nov-20 04:30N 28°48' W 014°19'1313.3
2016-Nov-20 03:33N 28°39' W 014°30'2713.4
2016-Nov-20 01:33N 28°24' W 014°54'2613.0
2016-Nov-19 23:33N 28°09' W 015°19'6 5.4
2016-Nov-19 22:32N 28°06' W 015°24'0 0.0
2016-Nov-19 20:32N 28°06' W 015°24'0 0.0
2016-Nov-19 19:32N 28°06' W 015°24'0 0.0
2016-Nov-19 17:33N 28°06' W 015°24'2 1.6
2016-Nov-19 16:33N 28°06' W 015°22'  

Dump ship's entire track history